createdAt,value
2023-03-27T00:01:10.478Z,4.66
2023-03-27T00:03:37.352Z,4.68
2023-03-27T00:06:05.614Z,4.80
2023-03-27T00:08:32.463Z,4.55
2023-03-27T00:10:59.715Z,4.25
2023-03-27T00:13:26.978Z,3.74
2023-03-27T00:15:54.846Z,3.99
2023-03-27T00:18:21.475Z,3.87
2023-03-27T00:20:48.222Z,3.73
2023-03-27T00:23:15.193Z,3.65
2023-03-27T00:25:41.733Z,3.80
2023-03-27T00:28:08.524Z,3.39
2023-03-27T00:30:35.323Z,3.79
2023-03-27T00:33:03.077Z,3.82
2023-03-27T00:35:30.212Z,3.36
2023-03-27T00:37:56.838Z,3.75
2023-03-27T00:40:23.337Z,3.72
2023-03-27T00:42:51.690Z,3.71
2023-03-27T00:45:20.153Z,3.75
2023-03-27T00:47:50.802Z,3.68
2023-03-27T00:50:22.549Z,3.67
2023-03-27T00:52:54.568Z,3.48
2023-03-27T00:55:22.655Z,3.52
2023-03-27T00:57:57.713Z,3.36
2023-03-27T01:00:24.662Z,3.72
2023-03-27T01:02:51.273Z,3.72
2023-03-27T01:05:18.859Z,3.84
2023-03-27T01:08:00.481Z,3.51
2023-03-27T01:10:42.588Z,3.46
2023-03-27T01:13:21.169Z,3.57
2023-03-27T01:16:04.241Z,3.28
2023-03-27T01:18:49.509Z,3.51
2023-03-27T01:21:49.932Z,3.43
2023-03-27T01:24:40.646Z,3.52
2023-03-27T01:27:15.176Z,3.46
2023-03-27T01:30:03.083Z,3.38
2023-03-27T01:32:32.290Z,3.31
2023-03-27T01:35:10.172Z,3.37
2023-03-27T01:37:51.809Z,3.33
2023-03-27T01:40:32.068Z,3.49
2023-03-27T01:43:09.978Z,3.38
2023-03-27T01:46:15.346Z,3.79
2023-03-27T01:48:55.452Z,3.83
2023-03-27T01:51:34.248Z,3.55
2023-03-27T01:54:24.237Z,3.27
2023-03-27T01:57:24.225Z,3.50
2023-03-27T02:00:18.475Z,3.50
2023-03-27T02:02:56.850Z,3.13
2023-03-27T02:05:37.932Z,3.43
2023-03-27T02:08:17.056Z,3.15
2023-03-27T02:10:48.377Z,3.45
2023-03-27T02:13:21.603Z,3.55
2023-03-27T02:15:50.330Z,3.66
2023-03-27T02:18:29.867Z,3.60
2023-03-27T02:20:56.536Z,3.48
2023-03-27T02:23:23.206Z,3.66
2023-03-27T02:25:50.348Z,3.28
2023-03-27T02:28:46.154Z,3.71
2023-03-27T02:31:31.848Z,3.62
2023-03-27T02:34:08.759Z,3.66
2023-03-27T02:36:58.128Z,3.14
2023-03-27T02:39:40.374Z,3.32
2023-03-27T02:42:06.730Z,3.48
2023-03-27T02:44:46.360Z,3.41
2023-03-27T02:47:27.726Z,3.30
2023-03-27T02:50:00.024Z,2.88
2023-03-27T02:52:31.001Z,2.99
2023-03-27T02:55:06.656Z,3.15
2023-03-27T02:57:36.924Z,3.12
2023-03-27T03:00:03.914Z,2.96
2023-03-27T03:02:33.726Z,2.81
2023-03-27T03:05:08.842Z,2.80
2023-03-27T03:07:35.489Z,3.09
2023-03-27T03:10:01.921Z,3.14
2023-03-27T03:12:28.397Z,3.15
2023-03-27T03:14:54.943Z,3.22
2023-03-27T03:17:21.366Z,2.87
2023-03-27T03:19:47.806Z,3.11
2023-03-27T03:22:14.277Z,2.69
2023-03-27T03:24:40.977Z,2.71
2023-03-27T03:27:07.683Z,2.81
2023-03-27T03:29:34.162Z,2.65
2023-03-27T03:32:01.023Z,2.70
2023-03-27T03:34:27.463Z,2.36
2023-03-27T03:36:54.016Z,2.48
2023-03-27T03:39:20.728Z,2.58
2023-03-27T03:41:47.674Z,2.73
2023-03-27T03:44:14.451Z,2.61
2023-03-27T03:46:41.202Z,2.75
2023-03-27T03:49:07.797Z,2.64
2023-03-27T03:51:35.800Z,2.77
2023-03-27T03:54:03.050Z,2.42
2023-03-27T03:56:29.702Z,2.37
2023-03-27T03:58:56.612Z,2.61
2023-03-27T04:01:23.662Z,2.39
2023-03-27T04:03:50.494Z,2.35
2023-03-27T04:06:17.398Z,2.27
2023-03-27T04:08:47.269Z,2.56
2023-03-27T04:11:13.690Z,2.55
2023-03-27T04:13:40.171Z,2.53
2023-03-27T04:16:06.825Z,2.53
2023-03-27T04:18:33.491Z,2.57
2023-03-27T04:21:00.347Z,2.33
2023-03-27T04:23:26.929Z,2.73
2023-03-27T04:25:53.438Z,2.78
2023-03-27T04:28:19.896Z,2.51
2023-03-27T04:30:46.625Z,2.60
2023-03-27T04:33:13.027Z,2.40
2023-03-27T04:35:39.480Z,2.81
2023-03-27T04:38:05.922Z,2.79
2023-03-27T04:40:32.451Z,2.61
2023-03-27T04:42:58.902Z,2.66
2023-03-27T04:45:25.377Z,2.46
2023-03-27T04:47:51.914Z,2.39
2023-03-27T04:50:18.513Z,2.60
2023-03-27T04:52:45.022Z,2.56
2023-03-27T04:55:11.523Z,2.35
2023-03-27T04:57:38.095Z,2.53
2023-03-27T05:00:05.933Z,2.51
2023-03-27T05:02:32.520Z,2.46
2023-03-27T05:04:59.010Z,2.15
2023-03-27T05:07:25.945Z,2.39
2023-03-27T05:09:52.781Z,2.37
2023-03-27T05:12:20.348Z,2.28
2023-03-27T05:14:46.800Z,2.24
2023-03-27T05:17:13.215Z,1.86
2023-03-27T05:19:39.734Z,2.20
2023-03-27T05:22:06.235Z,2.14
2023-03-27T05:24:32.666Z,2.16
2023-03-27T05:26:59.165Z,2.01
2023-03-27T05:29:25.695Z,2.20
2023-03-27T05:31:52.261Z,2.22
2023-03-27T05:34:18.690Z,2.46
2023-03-27T05:36:45.150Z,2.21
2023-03-27T05:39:11.615Z,2.53
2023-03-27T05:41:38.217Z,2.42
2023-03-27T05:44:05.267Z,2.22
2023-03-27T05:46:31.772Z,2.29
2023-03-27T05:48:58.352Z,2.21
2023-03-27T05:51:25.739Z,2.22
2023-03-27T05:53:52.203Z,2.08
2023-03-27T05:56:18.719Z,2.33
2023-03-27T05:58:45.119Z,1.93
2023-03-27T06:01:11.726Z,1.88
2023-03-27T06:03:38.757Z,2.31
2023-03-27T06:06:10.252Z,2.05
2023-03-27T06:08:37.812Z,1.98
2023-03-27T06:11:08.989Z,2.45
2023-03-27T06:13:35.985Z,2.07
2023-03-27T06:16:02.725Z,2.46
2023-03-27T06:18:29.330Z,2.73
2023-03-27T06:20:55.966Z,2.86
2023-03-27T06:23:22.600Z,2.85
2023-03-27T06:25:49.236Z,2.73
2023-03-27T06:28:15.724Z,3.57
2023-03-27T06:30:42.261Z,3.70
2023-03-27T06:33:10.062Z,3.67
2023-03-27T06:35:36.558Z,3.78
2023-03-27T06:38:03.467Z,4.10
2023-03-27T06:40:31.721Z,4.21
2023-03-27T06:43:09.044Z,4.30
2023-03-27T06:45:45.250Z,4.49
2023-03-27T06:48:20.590Z,4.73
2023-03-27T06:50:51.006Z,5.28
2023-03-27T06:55:48.220Z,6.13
2023-03-27T06:58:15.019Z,5.44
2023-03-27T07:00:42.164Z,4.67
2023-03-27T07:03:10.547Z,4.26
2023-03-27T07:05:39.754Z,4.07
2023-03-27T07:08:21.177Z,3.93
2023-03-27T07:10:56.275Z,3.95
2023-03-27T07:13:27.177Z,4.11
2023-03-27T07:15:53.680Z,3.90
2023-03-27T07:18:20.224Z,4.01
2023-03-27T07:20:47.056Z,3.75
2023-03-27T07:23:13.633Z,3.74
2023-03-27T07:25:40.099Z,3.82
2023-03-27T07:28:09.262Z,4.01
2023-03-27T07:30:36.840Z,5.34
2023-03-27T07:33:04.726Z,7.16
2023-03-27T07:35:31.336Z,6.95
2023-03-27T07:37:57.894Z,7.47
2023-03-27T07:40:33.381Z,8.16
2023-03-27T07:43:04.132Z,8.73
2023-03-27T07:45:30.648Z,8.98
2023-03-27T07:48:08.761Z,8.21
2023-03-27T07:50:35.769Z,9.18
2023-03-27T07:53:02.233Z,9.46
2023-03-27T07:55:28.781Z,9.64
2023-03-27T07:58:01.403Z,9.86
2023-03-27T08:00:29.815Z,8.33
2023-03-27T08:03:11.085Z,8.81
2023-03-27T08:05:37.867Z,9.42
2023-03-27T08:08:04.582Z,9.21
2023-03-27T08:10:31.129Z,9.00
2023-03-27T08:12:57.587Z,8.62
2023-03-27T08:15:24.584Z,8.77
2023-03-27T08:17:51.094Z,7.54
2023-03-27T08:20:17.642Z,6.83
2023-03-27T08:22:44.089Z,8.59
2023-03-27T08:25:10.654Z,8.95
2023-03-27T08:27:37.157Z,9.43
2023-03-27T08:30:04.429Z,8.71
2023-03-27T08:32:30.918Z,9.16
2023-03-27T08:34:57.381Z,9.20
2023-03-27T08:37:24.299Z,8.85
2023-03-27T08:39:50.757Z,9.92
2023-03-27T08:42:27.340Z,9.26
2023-03-27T08:44:55.335Z,10.40
2023-03-27T08:47:37.474Z,10.14
2023-03-27T08:50:15.219Z,10.26
2023-03-27T08:52:43.268Z,10.30
2023-03-27T08:55:21.002Z,10.35
2023-03-27T08:57:48.390Z,11.48
2023-03-27T09:00:21.776Z,10.42
2023-03-27T09:02:59.035Z,8.80
2023-03-27T09:05:47.156Z,8.89
2023-03-27T09:08:19.170Z,10.05
2023-03-27T09:10:50.611Z,10.75
2023-03-27T09:13:26.055Z,9.92
2023-03-27T09:16:15.410Z,8.59
2023-03-27T09:18:56.887Z,8.20
2023-03-27T09:21:38.346Z,7.59
2023-03-27T09:24:14.268Z,7.08
2023-03-27T09:26:41.146Z,9.51
2023-03-27T09:29:13.300Z,10.89
2023-03-27T09:31:52.204Z,11.45
2023-03-27T09:34:30.749Z,12.54
2023-03-27T09:36:58.817Z,12.11
2023-03-27T09:39:30.821Z,12.42
2023-03-27T09:42:07.783Z,11.55
2023-03-27T09:44:39.672Z,11.27
2023-03-27T09:47:24.994Z,12.04
2023-03-27T09:49:57.679Z,12.45
2023-03-27T09:52:33.429Z,11.66
2023-03-27T09:55:00.245Z,11.01
2023-03-27T09:57:36.052Z,8.14
2023-03-27T10:00:08.667Z,7.59
2023-03-27T10:02:37.326Z,7.82
2023-03-27T10:05:19.038Z,7.56
2023-03-27T10:07:46.146Z,7.34
2023-03-27T10:10:18.531Z,7.40
2023-03-27T10:12:56.499Z,9.59
2023-03-27T10:15:38.186Z,11.76
2023-03-27T10:18:08.540Z,11.33
2023-03-27T10:20:35.111Z,11.54
2023-03-27T10:23:07.192Z,12.16
2023-03-27T10:25:38.436Z,12.92
2023-03-27T10:28:46.237Z,13.00
2023-03-27T10:31:31.786Z,12.29
2023-03-27T10:34:02.586Z,12.54
2023-03-27T10:36:33.798Z,12.15
2023-03-27T10:39:03.670Z,12.35
2023-03-27T10:41:33.314Z,12.08
2023-03-27T10:44:00.732Z,12.14
2023-03-27T10:46:29.835Z,11.83
2023-03-27T10:49:17.285Z,11.89
2023-03-27T10:52:02.329Z,11.95
2023-03-27T10:54:30.073Z,10.93
2023-03-27T10:57:12.323Z,9.71
2023-03-27T10:59:49.822Z,10.44
2023-03-27T11:02:23.025Z,11.65
2023-03-27T11:04:55.748Z,10.93
2023-03-27T11:07:46.300Z,11.12
2023-03-27T11:10:22.148Z,10.40
2023-03-27T11:12:55.158Z,10.47
2023-03-27T11:15:28.414Z,11.48
2023-03-27T11:17:54.945Z,10.72
2023-03-27T11:20:26.407Z,9.43
2023-03-27T11:22:59.733Z,8.49
2023-03-27T11:25:32.791Z,8.54
2023-03-27T11:28:21.004Z,9.27
2023-03-27T11:31:14.705Z,9.10
2023-03-27T11:33:51.325Z,9.47
2023-03-27T11:36:45.695Z,9.13
2023-03-27T11:39:29.362Z,9.91
2023-03-27T11:42:02.298Z,10.41
2023-03-27T11:44:29.142Z,10.41
2023-03-27T11:47:12.733Z,10.07
2023-03-27T11:50:00.742Z,10.21
2023-03-27T11:52:58.020Z,11.06
2023-03-27T11:55:27.439Z,11.67
2023-03-27T11:58:38.138Z,11.45
2023-03-27T12:01:10.235Z,9.60
2023-03-27T12:04:00.144Z,9.67
2023-03-27T12:07:04.341Z,10.05
2023-03-27T12:09:39.654Z,10.23
2023-03-27T12:12:24.917Z,10.81
2023-03-27T12:15:00.566Z,9.61
2023-03-27T12:17:53.168Z,9.74
2023-03-27T12:20:28.792Z,10.41
2023-03-27T12:23:01.202Z,10.51
2023-03-27T12:26:12.432Z,10.37
2023-03-27T12:29:23.339Z,8.57
2023-03-27T12:31:50.735Z,7.80
2023-03-27T12:34:45.227Z,8.60
2023-03-27T12:37:13.527Z,9.40
2023-03-27T12:39:52.103Z,9.92
2023-03-27T12:42:52.170Z,10.23
2023-03-27T12:45:26.012Z,11.34
2023-03-27T12:48:05.045Z,12.75
2023-03-27T12:50:40.885Z,12.32
2023-03-27T12:53:18.206Z,12.66
2023-03-27T12:55:44.679Z,13.00
2023-03-27T12:58:28.184Z,10.91
2023-03-27T13:00:58.192Z,10.14
2023-03-27T13:03:41.076Z,9.67
2023-03-27T13:06:07.638Z,9.02
2023-03-27T13:08:55.895Z,8.65
2023-03-27T13:11:41.311Z,8.49
2023-03-27T13:14:16.874Z,10.44
2023-03-27T13:16:49.499Z,11.10
2023-03-27T13:19:39.117Z,10.39
2023-03-27T13:22:29.817Z,10.07
2023-03-27T13:25:48.149Z,11.74
2023-03-27T13:28:34.523Z,11.75
2023-03-27T13:31:02.787Z,10.45
2023-03-27T13:33:29.220Z,12.66
2023-03-27T13:36:03.706Z,11.81
2023-03-27T13:38:45.600Z,10.67
2023-03-27T13:41:46.134Z,9.80
2023-03-27T13:44:19.807Z,12.31
2023-03-27T13:46:52.240Z,12.64
2023-03-27T13:49:52.936Z,12.39
2023-03-27T13:52:44.013Z,11.89
2023-03-27T13:55:16.323Z,10.13
2023-03-27T13:57:53.243Z,9.53
2023-03-27T14:00:28.926Z,9.44
2023-03-27T14:03:41.120Z,9.39
2023-03-27T14:06:10.549Z,8.70
2023-03-27T14:08:55.949Z,10.00
2023-03-27T14:11:44.335Z,11.22
2023-03-27T14:14:27.638Z,11.65
2023-03-27T14:17:06.277Z,11.20
2023-03-27T14:20:09.991Z,11.32
2023-03-27T14:22:39.426Z,10.33
2023-03-27T14:25:16.141Z,9.39
2023-03-27T14:27:48.477Z,9.77
2023-03-27T14:30:19.144Z,10.16
2023-03-27T14:32:46.808Z,10.37
2023-03-27T14:35:43.598Z,11.33
2023-03-27T14:38:21.027Z,10.38
2023-03-27T14:40:47.752Z,10.58
2023-03-27T14:43:17.401Z,11.60
2023-03-27T14:45:44.375Z,12.06
2023-03-27T14:48:28.947Z,11.83
2023-03-27T14:51:00.036Z,11.49
2023-03-27T14:53:31.358Z,10.36
2023-03-27T14:56:04.026Z,10.35
2023-03-27T14:58:30.860Z,10.83
2023-03-27T15:00:59.808Z,10.03
2023-03-27T15:03:28.530Z,9.69
2023-03-27T15:06:03.064Z,8.80
2023-03-27T15:08:34.730Z,8.91
2023-03-27T15:11:06.137Z,8.70
2023-03-27T15:13:35.540Z,9.73
2023-03-27T15:16:03.344Z,10.32
2023-03-27T15:18:34.390Z,10.86
2023-03-27T15:21:06.736Z,11.19
2023-03-27T15:23:38.819Z,10.72
2023-03-27T15:26:15.961Z,11.55
2023-03-27T15:28:50.767Z,10.72
2023-03-27T15:31:17.833Z,11.09
2023-03-27T15:33:58.385Z,10.52
2023-03-27T15:36:24.884Z,10.22
2023-03-27T15:38:51.725Z,10.82
2023-03-27T15:41:18.169Z,10.84
2023-03-27T15:43:44.836Z,10.56
2023-03-27T15:46:19.897Z,10.72
2023-03-27T15:48:47.897Z,10.61
2023-03-27T15:51:20.628Z,10.72
2023-03-27T15:53:48.152Z,10.89
2023-03-27T15:56:40.584Z,10.08
2023-03-27T15:59:10.089Z,9.74
2023-03-27T16:01:36.607Z,9.81
2023-03-27T16:04:12.438Z,9.79
2023-03-27T16:06:42.037Z,10.18
2023-03-27T16:09:48.591Z,9.65
2023-03-27T16:12:19.800Z,9.30
2023-03-27T16:14:56.784Z,8.98
2023-03-27T16:17:38.069Z,8.62
2023-03-27T16:20:07.584Z,8.32
2023-03-27T16:22:36.034Z,8.57
2023-03-27T16:25:05.258Z,8.87
2023-03-27T16:27:37.909Z,8.69
2023-03-27T16:30:09.797Z,8.02
2023-03-27T16:32:36.303Z,7.68
2023-03-27T16:35:02.872Z,7.89
2023-03-27T16:37:29.518Z,7.36
2023-03-27T16:39:56.102Z,7.07
2023-03-27T16:42:26.043Z,7.38
2023-03-27T16:44:53.457Z,7.23
2023-03-27T16:47:20.663Z,7.28
2023-03-27T16:49:56.215Z,7.51
2023-03-27T16:52:26.777Z,7.64
2023-03-27T16:54:53.964Z,7.13
2023-03-27T16:57:20.572Z,7.24
2023-03-27T16:59:47.084Z,7.60
2023-03-27T17:02:13.604Z,7.44
2023-03-27T17:04:40.445Z,7.01
2023-03-27T17:07:06.996Z,7.15
2023-03-27T17:09:33.607Z,7.13
2023-03-27T17:12:00.167Z,7.43
2023-03-27T17:14:26.623Z,7.00
2023-03-27T17:16:53.160Z,6.73
2023-03-27T17:19:19.696Z,7.27
2023-03-27T17:21:46.357Z,7.21
2023-03-27T17:24:12.838Z,7.24
2023-03-27T17:26:39.361Z,7.19
2023-03-27T17:29:06.331Z,6.90
2023-03-27T17:31:33.673Z,6.90
2023-03-27T17:34:00.264Z,6.77
2023-03-27T17:36:39.712Z,6.71
2023-03-27T17:39:09.670Z,6.48
2023-03-27T17:41:36.285Z,6.51
2023-03-27T17:44:02.742Z,6.21
2023-03-27T17:46:29.364Z,6.35
2023-03-27T17:48:55.852Z,6.18
2023-03-27T17:51:22.334Z,6.12
2023-03-27T17:53:48.924Z,6.14
2023-03-27T17:56:15.383Z,6.07
2023-03-27T17:58:41.890Z,5.97
2023-03-27T18:01:22.635Z,5.66
2023-03-27T18:03:49.682Z,5.89
2023-03-27T18:06:17.546Z,5.82
2023-03-27T18:08:45.068Z,5.92
2023-03-27T18:11:13.642Z,5.60
2023-03-27T18:13:40.333Z,5.66
2023-03-27T18:16:07.978Z,5.67
2023-03-27T18:18:34.775Z,5.77
2023-03-27T18:21:01.234Z,5.46
2023-03-27T18:23:27.796Z,5.58
2023-03-27T18:25:54.318Z,5.26
2023-03-27T18:28:20.904Z,5.40
2023-03-27T18:30:47.486Z,5.25
2023-03-27T18:33:13.962Z,5.29
2023-03-27T18:35:40.443Z,4.96
2023-03-27T18:38:06.985Z,5.41
2023-03-27T18:40:33.448Z,5.52
2023-03-27T18:43:00.033Z,5.48
2023-03-27T18:45:26.561Z,5.21
2023-03-27T18:47:53.049Z,5.11
2023-03-27T18:50:19.651Z,5.49
2023-03-27T18:52:46.122Z,5.17
2023-03-27T18:55:12.521Z,5.26
2023-03-27T18:57:38.995Z,5.25
2023-03-27T19:00:07.056Z,4.96
2023-03-27T19:02:33.639Z,4.90
2023-03-27T19:05:00.126Z,4.97
2023-03-27T19:07:26.572Z,5.08
2023-03-27T19:09:53.044Z,4.57
2023-03-27T19:12:19.550Z,5.11
2023-03-27T19:14:46.022Z,4.70
2023-03-27T19:17:12.581Z,4.32
2023-03-27T19:19:39.129Z,4.74
2023-03-27T19:22:05.572Z,4.55
2023-03-27T19:24:32.133Z,4.83
2023-03-27T19:26:58.652Z,4.92
2023-03-27T19:29:25.185Z,4.61
2023-03-27T19:31:51.661Z,4.40
2023-03-27T19:34:18.141Z,4.78
2023-03-27T19:36:44.606Z,4.71
2023-03-27T19:39:11.070Z,4.36
2023-03-27T19:41:40.368Z,4.46
2023-03-27T19:44:06.861Z,4.38
2023-03-27T19:46:33.408Z,4.38
2023-03-27T19:48:59.889Z,4.25
2023-03-27T19:51:26.449Z,4.74
2023-03-27T19:53:53.036Z,4.28
2023-03-27T19:56:19.608Z,4.34
2023-03-27T19:58:46.002Z,4.47
2023-03-27T20:01:12.492Z,3.79
2023-03-27T20:03:39.038Z,4.19
2023-03-27T20:06:07.616Z,4.38
2023-03-27T20:08:35.583Z,4.32
2023-03-27T20:11:02.080Z,4.20
2023-03-27T20:13:28.586Z,4.26
2023-03-27T20:15:55.046Z,4.28
2023-03-27T20:18:21.662Z,4.26
2023-03-27T20:20:48.538Z,4.37
2023-03-27T20:23:15.068Z,4.45
2023-03-27T20:25:41.582Z,4.40
2023-03-27T20:28:08.139Z,4.02
2023-03-27T20:30:37.004Z,4.22
2023-03-27T20:33:04.567Z,4.13
2023-03-27T20:35:32.965Z,3.71
2023-03-27T20:38:00.133Z,3.77
2023-03-27T20:40:26.658Z,3.48
2023-03-27T20:42:54.467Z,3.58
2023-03-27T20:45:21.281Z,3.30
2023-03-27T20:47:48.291Z,3.66
2023-03-27T20:50:16.175Z,3.74
2023-03-27T20:52:43.660Z,3.50
2023-03-27T20:55:13.426Z,3.47
2023-03-27T20:57:44.005Z,3.71
2023-03-27T21:00:12.013Z,3.54
2023-03-27T21:02:38.585Z,2.85
2023-03-27T21:05:05.508Z,2.67
2023-03-27T21:07:32.045Z,2.79
2023-03-27T21:09:58.480Z,2.84
2023-03-27T21:12:24.966Z,2.45
2023-03-27T21:14:51.422Z,2.89
2023-03-27T21:17:17.955Z,2.51
2023-03-27T21:19:44.443Z,2.32
2023-03-27T21:22:10.960Z,2.28
2023-03-27T21:24:37.399Z,2.28
2023-03-27T21:27:03.972Z,2.29
2023-03-27T21:29:30.538Z,1.97
2023-03-27T21:31:57.050Z,2.01
2023-03-27T21:34:23.715Z,2.25
2023-03-27T21:36:50.180Z,2.58
2023-03-27T21:39:16.694Z,2.32
2023-03-27T21:41:43.174Z,2.31
2023-03-27T21:44:09.697Z,2.31
2023-03-27T21:46:36.249Z,2.17
2023-03-27T21:49:02.679Z,2.46
2023-03-27T21:51:29.155Z,2.51
2023-03-27T21:53:55.693Z,2.62
2023-03-27T21:56:22.173Z,2.34
2023-03-27T21:58:48.656Z,2.63
2023-03-27T22:01:15.185Z,2.56
2023-03-27T22:03:41.729Z,2.63
2023-03-27T22:06:12.192Z,2.55
2023-03-27T22:08:40.340Z,2.11
2023-03-27T22:11:06.828Z,1.49
2023-03-27T22:13:35.715Z,1.92
2023-03-27T22:16:07.865Z,1.87
2023-03-27T22:18:34.339Z,2.06
2023-03-27T22:21:12.191Z,1.75
2023-03-27T22:23:38.720Z,1.86
2023-03-27T22:26:05.609Z,1.92
2023-03-27T22:28:32.103Z,1.89
2023-03-27T22:30:58.604Z,1.95
2023-03-27T22:33:25.120Z,1.56
2023-03-27T22:35:51.599Z,1.55
2023-03-27T22:38:18.198Z,1.58
2023-03-27T22:40:44.647Z,1.87
2023-03-27T22:43:11.117Z,1.98
2023-03-27T22:45:49.628Z,1.49
2023-03-27T22:48:16.279Z,1.26
2023-03-27T22:50:42.678Z,1.70
2023-03-27T22:53:09.147Z,1.55
2023-03-27T22:55:35.634Z,0.96
2023-03-27T22:58:02.219Z,1.14
2023-03-27T23:00:28.729Z,1.10
2023-03-27T23:02:55.325Z,1.32
2023-03-27T23:05:24.883Z,1.30
2023-03-27T23:07:51.318Z,1.43
2023-03-27T23:10:17.902Z,1.34
2023-03-27T23:12:44.386Z,1.33
2023-03-27T23:15:11.035Z,1.45
2023-03-27T23:17:37.489Z,0.94
2023-03-27T23:20:04.302Z,0.98
2023-03-27T23:22:30.741Z,1.53
2023-03-27T23:24:57.218Z,1.60
2023-03-27T23:27:23.720Z,1.14
2023-03-27T23:29:50.239Z,1.60
2023-03-27T23:32:16.714Z,1.65
2023-03-27T23:34:43.169Z,1.59
2023-03-27T23:37:09.643Z,1.38
2023-03-27T23:39:36.085Z,0.65
2023-03-27T23:42:02.516Z,0.53
2023-03-27T23:44:28.916Z,1.04
2023-03-27T23:46:55.408Z,0.94
2023-03-27T23:49:22.107Z,0.79
2023-03-27T23:51:48.622Z,0.95
2023-03-27T23:54:15.146Z,0.87
2023-03-27T23:56:41.629Z,0.76
2023-03-27T23:59:08.100Z,0.93
